sensor_id;sensor_type;location;lat;lon;timestamp;pressure;altitude;pressure_sealevel;temperature;humidity
76998;BME280;65930;48.874;10.734;2024-01-11T00:01:47;96903.31;;;-4.85;82.29
76998;BME280;65930;48.874;10.734;2024-01-11T00:04:15;96897.31;;;-4.72;81.75
76998;BME280;65930;48.874;10.734;2024-01-11T00:06:44;96903.34;;;-4.51;79.73
76998;BME280;65930;48.874;10.734;2024-01-11T00:09:12;96907.22;;;-4.96;81.14
76998;BME280;65930;48.874;10.734;2024-01-11T00:11:42;96901.16;;;-4.49;80.65
76998;BME280;65930;48.874;10.734;2024-01-11T00:14:10;96903.06;;;-4.83;81.34
76998;BME280;65930;48.874;10.734;2024-01-11T00:16:38;96907.94;;;-4.85;83.04
76998;BME280;65930;48.874;10.734;2024-01-11T00:19:06;96902.69;;;-4.67;80.98
76998;BME280;65930;48.874;10.734;2024-01-11T00:21:34;96904.72;;;-4.88;80.91
76998;BME280;65930;48.874;10.734;2024-01-11T00:24:06;96905.97;;;-5.14;83.06
76998;BME280;65930;48.874;10.734;2024-01-11T00:26:34;96904.81;;;-5.03;82.92
76998;BME280;65930;48.874;10.734;2024-01-11T00:29:05;96902.91;;;-5.02;82.33
76998;BME280;65930;48.874;10.734;2024-01-11T00:31:33;96905.38;;;-5.06;82.56
76998;BME280;65930;48.874;10.734;2024-01-11T00:34:02;96906.03;;;-4.85;82.79
76998;BME280;65930;48.874;10.734;2024-01-11T00:36:30;96905.13;;;-4.70;81.04
76998;BME280;65930;48.874;10.734;2024-01-11T00:38:59;96909.53;;;-4.84;81.11
76998;BME280;65930;48.874;10.734;2024-01-11T00:41:28;96915.53;;;-4.88;81.40
76998;BME280;65930;48.874;10.734;2024-01-11T00:43:56;96905.28;;;-4.91;79.94
76998;BME280;65930;48.874;10.734;2024-01-11T00:46:25;96920.66;;;-4.86;81.38
76998;BME280;65930;48.874;10.734;2024-01-11T00:48:53;96909.88;;;-4.91;81.00
76998;BME280;65930;48.874;10.734;2024-01-11T00:51:22;96914.91;;;-4.79;80.49
76998;BME280;65930;48.874;10.734;2024-01-11T00:53:50;96916.34;;;-4.87;80.71
76998;BME280;65930;48.874;10.734;2024-01-11T00:56:19;96917.31;;;-4.73;80.40
76998;BME280;65930;48.874;10.734;2024-01-11T00:58:47;96910.78;;;-4.67;79.21
76998;BME280;65930;48.874;10.734;2024-01-11T01:01:15;96916.78;;;-4.75;80.17
76998;BME280;65930;48.874;10.734;2024-01-11T01:03:44;96914.59;;;-4.73;80.14
76998;BME280;65930;48.874;10.734;2024-01-11T01:06:12;96917.53;;;-4.69;79.93
76998;BME280;65930;48.874;10.734;2024-01-11T01:08:40;96909.44;;;-5.08;82.29
76998;BME280;65930;48.874;10.734;2024-01-11T01:11:08;96919.75;;;-5.15;81.57
76998;BME280;65930;48.874;10.734;2024-01-11T01:13:37;96916.34;;;-4.87;81.87
76998;BME280;65930;48.874;10.734;2024-01-11T01:16:05;96917.66;;;-4.84;80.54
76998;BME280;65930;48.874;10.734;2024-01-11T01:18:33;96926.63;;;-4.94;81.63
76998;BME280;65930;48.874;10.734;2024-01-11T01:21:03;96915.06;;;-5.49;83.14
76998;BME280;65930;48.874;10.734;2024-01-11T01:23:33;96935.09;;;-5.60;83.98
76998;BME280;65930;48.874;10.734;2024-01-11T01:26:01;96933.09;;;-5.34;83.97
76998;BME280;65930;48.874;10.734;2024-01-11T01:28:33;96934.16;;;-4.86;81.94
76998;BME280;65930;48.874;10.734;2024-01-11T01:31:01;96943.28;;;-5.85;84.18
76998;BME280;65930;48.874;10.734;2024-01-11T01:33:29;96946.63;;;-5.39;84.10
76998;BME280;65930;48.874;10.734;2024-01-11T01:35:57;96936.22;;;-5.66;84.02
76998;BME280;65930;48.874;10.734;2024-01-11T01:38:26;96931.06;;;-5.62;84.55
76998;BME280;65930;48.874;10.734;2024-01-11T01:40:54;96943.81;;;-5.83;85.64
76998;BME280;65930;48.874;10.734;2024-01-11T01:43:22;96933.47;;;-5.51;84.26
76998;BME280;65930;48.874;10.734;2024-01-11T01:45:51;96951.66;;;-5.22;82.99
76998;BME280;65930;48.874;10.734;2024-01-11T01:48:20;96944.50;;;-5.47;82.90
76998;BME280;65930;48.874;10.734;2024-01-11T01:50:49;96946.84;;;-5.30;82.29
76998;BME280;65930;48.874;10.734;2024-01-11T01:53:19;96944.31;;;-5.71;84.05
76998;BME280;65930;48.874;10.734;2024-01-11T01:55:52;96951.34;;;-5.16;80.99
76998;BME280;65930;48.874;10.734;2024-01-11T01:58:22;96947.44;;;-5.39;81.79
76998;BME280;65930;48.874;10.734;2024-01-11T02:00:52;96939.53;;;-5.25;80.10
76998;BME280;65930;48.874;10.734;2024-01-11T02:03:20;96940.97;;;-5.43;81.31
76998;BME280;65930;48.874;10.734;2024-01-11T02:05:49;96947.13;;;-6.01;82.79
76998;BME280;65930;48.874;10.734;2024-01-11T02:08:22;96943.91;;;-5.98;84.16
76998;BME280;65930;48.874;10.734;2024-01-11T02:10:51;96951.03;;;-5.68;83.21
76998;BME280;65930;48.874;10.734;2024-01-11T02:13:20;96951.28;;;-5.60;82.99
76998;BME280;65930;48.874;10.734;2024-01-11T02:15:48;96952.25;;;-5.30;81.21
76998;BME280;65930;48.874;10.734;2024-01-11T02:20:45;96947.22;;;-5.52;82.91
76998;BME280;65930;48.874;10.734;2024-01-11T02:23:17;96955.69;;;-5.79;83.17
76998;BME280;65930;48.874;10.734;2024-01-11T02:25:48;96945.97;;;-5.80;83.29
76998;BME280;65930;48.874;10.734;2024-01-11T02:28:17;96958.63;;;-5.65;83.87
76998;BME280;65930;48.874;10.734;2024-01-11T02:30:45;96948.06;;;-5.62;82.72
76998;BME280;65930;48.874;10.734;2024-01-11T02:33:14;96950.91;;;-5.97;84.27
76998;BME280;65930;48.874;10.734;2024-01-11T02:35:44;96947.66;;;-5.89;84.14
76998;BME280;65930;48.874;10.734;2024-01-11T02:38:14;96943.78;;;-5.78;83.94
76998;BME280;65930;48.874;10.734;2024-01-11T02:40:44;96942.13;;;-5.69;83.70
76998;BME280;65930;48.874;10.734;2024-01-11T02:43:13;96943.13;;;-5.45;82.61
76998;BME280;65930;48.874;10.734;2024-01-11T02:45:41;96945.31;;;-5.47;80.91
76998;BME280;65930;48.874;10.734;2024-01-11T02:48:09;96939.13;;;-5.52;81.57
76998;BME280;65930;48.874;10.734;2024-01-11T02:50:38;96945.31;;;-5.47;81.92
76998;BME280;65930;48.874;10.734;2024-01-11T02:53:06;96943.28;;;-5.85;82.92
76998;BME280;65930;48.874;10.734;2024-01-11T02:55:34;96945.56;;;-6.38;84.18
76998;BME280;65930;48.874;10.734;2024-01-11T02:58:02;96942.84;;;-6.07;84.12
76998;BME280;65930;48.874;10.734;2024-01-11T03:00:31;96935.34;;;-6.41;84.74
76998;BME280;65930;48.874;10.734;2024-01-11T03:02:59;96940.13;;;-5.97;85.24
76998;BME280;65930;48.874;10.734;2024-01-11T03:05:27;96937.47;;;-6.43;86.21
76998;BME280;65930;48.874;10.734;2024-01-11T03:07:56;96930.22;;;-6.37;85.98
76998;BME280;65930;48.874;10.734;2024-01-11T03:10:24;96933.16;;;-6.18;85.67
76998;BME280;65930;48.874;10.734;2024-01-11T03:12:52;96931.47;;;-5.89;84.31
76998;BME280;65930;48.874;10.734;2024-01-11T03:15:20;96927.59;;;-5.78;83.29
76998;BME280;65930;48.874;10.734;2024-01-11T03:17:49;96923.75;;;-5.57;81.05
76998;BME280;65930;48.874;10.734;2024-01-11T03:20:17;96923.19;;;-5.54;81.72
76998;BME280;65930;48.874;10.734;2024-01-11T03:22:48;96922.91;;;-6.11;84.47
76998;BME280;65930;48.874;10.734;2024-01-11T03:25:16;96920.44;;;-6.03;84.77
76998;BME280;65930;48.874;10.734;2024-01-11T03:27:44;96911.78;;;-5.90;82.73
76998;BME280;65930;48.874;10.734;2024-01-11T03:30:13;96904.06;;;-5.62;81.85
76998;BME280;65930;48.874;10.734;2024-01-11T03:32:41;96918.41;;;-5.72;80.93
76998;BME280;65930;48.874;10.734;2024-01-11T03:35:11;96911.59;;;-6.34;85.52
76998;BME280;65930;48.874;10.734;2024-01-11T03:37:39;96913.19;;;-6.22;85.86
76998;BME280;65930;48.874;10.734;2024-01-11T03:40:07;96909.94;;;-6.14;85.98
76998;BME280;65930;48.874;10.734;2024-01-11T03:42:35;96918.34;;;-5.57;83.61
76998;BME280;65930;48.874;10.734;2024-01-11T03:45:04;96917.97;;;-5.89;84.55
76998;BME280;65930;48.874;10.734;2024-01-11T03:47:32;96913.09;;;-5.87;85.12
76998;BME280;65930;48.874;10.734;2024-01-11T03:50:00;96913.66;;;-5.95;83.90
76998;BME280;65930;48.874;10.734;2024-01-11T03:52:30;96918.91;;;-6.49;85.19
76998;BME280;65930;48.874;10.734;2024-01-11T03:54:58;96911.16;;;-5.82;83.76
76998;BME280;65930;48.874;10.734;2024-01-11T03:57:26;96913.03;;;-5.77;81.71
76998;BME280;65930;48.874;10.734;2024-01-11T03:59:54;96917.25;;;-5.51;80.92
76998;BME280;65930;48.874;10.734;2024-01-11T04:02:22;96914.63;;;-5.66;80.75
76998;BME280;65930;48.874;10.734;2024-01-11T04:04:50;96921.13;;;-5.77;82.97
76998;BME280;65930;48.874;10.734;2024-01-11T04:07:18;96916.81;;;-5.83;83.02
76998;BME280;65930;48.874;10.734;2024-01-11T04:09:47;96908.03;;;-6.04;84.08
76998;BME280;65930;48.874;10.734;2024-01-11T04:12:15;96901.34;;;-6.27;83.67
76998;BME280;65930;48.874;10.734;2024-01-11T04:14:43;96908.66;;;-6.57;86.26
76998;BME280;65930;48.874;10.734;2024-01-11T04:17:11;96904.75;;;-5.91;84.12
76998;BME280;65930;48.874;10.734;2024-01-11T04:19:39;96897.03;;;-6.33;84.57
76998;BME280;65930;48.874;10.734;2024-01-11T04:22:08;96893.28;;;-6.32;83.60
76998;BME280;65930;48.874;10.734;2024-01-11T04:24:36;96902.41;;;-6.17;84.77
76998;BME280;65930;48.874;10.734;2024-01-11T04:27:05;96906.16;;;-6.13;84.82
76998;BME280;65930;48.874;10.734;2024-01-11T04:29:33;96905.34;;;-6.14;84.83
76998;BME280;65930;48.874;10.734;2024-01-11T04:32:01;96905.75;;;-5.82;82.65
76998;BME280;65930;48.874;10.734;2024-01-11T04:34:30;96907.19;;;-5.94;83.06
76998;BME280;65930;48.874;10.734;2024-01-11T04:36:58;96903.31;;;-5.78;81.19
76998;BME280;65930;48.874;10.734;2024-01-11T04:39:26;96909.13;;;-6.10;81.25
76998;BME280;65930;48.874;10.734;2024-01-11T04:41:57;96916.50;;;-6.86;85.48
76998;BME280;65930;48.874;10.734;2024-01-11T04:44:26;96911.00;;;-6.15;83.99
76998;BME280;65930;48.874;10.734;2024-01-11T04:46:54;96916.28;;;-5.80;81.26
76998;BME280;65930;48.874;10.734;2024-01-11T04:49:22;96923.69;;;-6.11;81.83
76998;BME280;65930;48.874;10.734;2024-01-11T04:51:51;96911.06;;;-6.20;82.93
76998;BME280;65930;48.874;10.734;2024-01-11T04:54:19;96920.78;;;-6.80;85.35
76998;BME280;65930;48.874;10.734;2024-01-11T04:56:47;96919.19;;;-6.86;87.22
76998;BME280;65930;48.874;10.734;2024-01-11T04:59:16;96921.88;;;-6.61;86.78
76998;BME280;65930;48.874;10.734;2024-01-11T05:01:46;96915.16;;;-6.53;87.23
76998;BME280;65930;48.874;10.734;2024-01-11T05:04:14;96907.81;;;-6.22;84.70
76998;BME280;65930;48.874;10.734;2024-01-11T05:06:42;96903.53;;;-6.89;86.10
76998;BME280;65930;48.874;10.734;2024-01-11T05:09:10;96909.75;;;-6.53;85.21
76998;BME280;65930;48.874;10.734;2024-01-11T05:11:38;96913.22;;;-6.48;84.77
76998;BME280;65930;48.874;10.734;2024-01-11T05:14:07;96920.13;;;-5.96;83.25
76998;BME280;65930;48.874;10.734;2024-01-11T05:16:35;96922.81;;;-5.91;82.81
76998;BME280;65930;48.874;10.734;2024-01-11T05:19:05;96921.88;;;-6.41;85.98
76998;BME280;65930;48.874;10.734;2024-01-11T05:21:33;96924.59;;;-6.81;86.67
76998;BME280;65930;48.874;10.734;2024-01-11T05:24:01;96928.31;;;-6.16;84.60
76998;BME280;65930;48.874;10.734;2024-01-11T05:26:29;96923.44;;;-6.30;83.04
76998;BME280;65930;48.874;10.734;2024-01-11T05:28:56;96916.22;;;-6.75;86.43
76998;BME280;65930;48.874;10.734;2024-01-11T05:31:27;96915.91;;;-6.33;85.51
76998;BME280;65930;48.874;10.734;2024-01-11T05:33:55;96926.69;;;-6.17;83.60
76998;BME280;65930;48.874;10.734;2024-01-11T05:36:26;96933.63;;;-5.96;82.16
76998;BME280;65930;48.874;10.734;2024-01-11T05:38:54;96941.00;;;-6.47;83.52
76998;BME280;65930;48.874;10.734;2024-01-11T05:41:22;96946.13;;;-6.51;84.27
76998;BME280;65930;48.874;10.734;2024-01-11T05:43:50;96943.41;;;-6.71;85.24
76998;BME280;65930;48.874;10.734;2024-01-11T05:46:18;96945.84;;;-6.85;86.54
76998;BME280;65930;48.874;10.734;2024-01-11T05:48:46;96946.59;;;-7.20;87.68
76998;BME280;65930;48.874;10.734;2024-01-11T05:51:14;96942.88;;;-6.93;87.01
76998;BME280;65930;48.874;10.734;2024-01-11T05:53:44;96952.03;;;-6.24;85.43
76998;BME280;65930;48.874;10.734;2024-01-11T05:56:12;96948.78;;;-6.15;84.29
76998;BME280;65930;48.874;10.734;2024-01-11T05:58:40;96952.03;;;-6.24;83.41
76998;BME280;65930;48.874;10.734;2024-01-11T06:01:08;96955.19;;;-5.96;82.20
76998;BME280;65930;48.874;10.734;2024-01-11T06:03:36;96959.03;;;-6.48;83.08
76998;BME280;65930;48.874;10.734;2024-01-11T06:06:06;96956.91;;;-6.61;86.32
76998;BME280;65930;48.874;10.734;2024-01-11T06:08:35;96950.44;;;-6.65;85.12
76998;BME280;65930;48.874;10.734;2024-01-11T06:11:04;96952.00;;;-6.13;83.55
76998;BME280;65930;48.874;10.734;2024-01-11T06:13:34;96956.91;;;-6.41;82.29
76998;BME280;65930;48.874;10.734;2024-01-11T06:16:02;96946.13;;;-6.31;84.07
76998;BME280;65930;48.874;10.734;2024-01-11T06:18:30;96936.41;;;-6.37;83.79
76998;BME280;65930;48.874;10.734;2024-01-11T06:20:59;96941.81;;;-6.47;84.75
76998;BME280;65930;48.874;10.734;2024-01-11T06:23:27;96949.63;;;-6.55;83.13
76998;BME280;65930;48.874;10.734;2024-01-11T06:25:55;96940.72;;;-6.20;82.26
76998;BME280;65930;48.874;10.734;2024-01-11T06:28:24;96943.13;;;-6.19;81.00
76998;BME280;65930;48.874;10.734;2024-01-11T06:30:52;96943.41;;;-6.76;84.39
76998;BME280;65930;48.874;10.734;2024-01-11T06:33:21;96949.88;;;-6.92;84.29
76998;BME280;65930;48.874;10.734;2024-01-11T06:35:49;96947.72;;;-6.80;85.96
76998;BME280;65930;48.874;10.734;2024-01-11T06:38:17;96952.56;;;-6.67;86.21
76998;BME280;65930;48.874;10.734;2024-01-11T06:40:45;96944.78;;;-6.53;84.17
76998;BME280;65930;48.874;10.734;2024-01-11T06:43:13;96950.69;;;-6.26;83.32
76998;BME280;65930;48.874;10.734;2024-01-11T06:45:43;96953.66;;;-6.17;82.32
76998;BME280;65930;48.874;10.734;2024-01-11T06:48:11;96963.63;;;-6.18;81.16
76998;BME280;65930;48.874;10.734;2024-01-11T06:50:39;96963.38;;;-6.27;80.96
76998;BME280;65930;48.874;10.734;2024-01-11T06:53:07;96955.28;;;-6.57;82.64
76998;BME280;65930;48.874;10.734;2024-01-11T06:55:36;96955.50;;;-6.08;81.33
76998;BME280;65930;48.874;10.734;2024-01-11T06:58:04;96969.03;;;-6.63;82.38
76998;BME280;65930;48.874;10.734;2024-01-11T07:00:32;96973.63;;;-6.64;84.64
76998;BME280;65930;48.874;10.734;2024-01-11T07:03:01;96981.16;;;-6.31;83.28
76998;BME280;65930;48.874;10.734;2024-01-11T07:05:30;96980.34;;;-6.36;82.28
76998;BME280;65930;48.874;10.734;2024-01-11T07:07:58;96984.38;;;-6.79;85.44
76998;BME280;65930;48.874;10.734;2024-01-11T07:10:27;96989.50;;;-6.78;84.78
76998;BME280;65930;48.874;10.734;2024-01-11T07:12:55;96993.56;;;-6.40;84.95
76998;BME280;65930;48.874;10.734;2024-01-11T07:15:22;97003.00;;;-6.27;83.27
76998;BME280;65930;48.874;10.734;2024-01-11T07:17:51;96999.16;;;-7.02;86.26
76998;BME280;65930;48.874;10.734;2024-01-11T07:20:21;96983.88;;;-6.31;83.98
76998;BME280;65930;48.874;10.734;2024-01-11T07:22:49;96989.47;;;-5.92;81.76
76998;BME280;65930;48.874;10.734;2024-01-11T07:25:17;97001.91;;;-6.46;83.58
76998;BME280;65930;48.874;10.734;2024-01-11T07:27:45;97003.78;;;-6.72;84.78
76998;BME280;65930;48.874;10.734;2024-01-11T07:30:14;97012.97;;;-6.63;83.58
76998;BME280;65930;48.874;10.734;2024-01-11T07:32:42;97019.63;;;-6.96;85.14
76998;BME280;65930;48.874;10.734;2024-01-11T07:35:11;97020.44;;;-6.85;86.53
76998;BME280;65930;48.874;10.734;2024-01-11T07:37:46;97010.81;;;-6.46;85.19
76998;BME280;65930;48.874;10.734;2024-01-11T07:40:14;97018.34;;;-6.63;84.96
76998;BME280;65930;48.874;10.734;2024-01-11T07:42:43;97022.91;;;-6.69;84.89
76998;BME280;65930;48.874;10.734;2024-01-11T07:45:12;97028.88;;;-6.21;83.80
76998;BME280;65930;48.874;10.734;2024-01-11T07:47:40;97030.47;;;-6.10;83.50
76998;BME280;65930;48.874;10.734;2024-01-11T07:50:09;97034.00;;;-6.19;81.92
76998;BME280;65930;48.874;10.734;2024-01-11T07:52:38;97031.84;;;-6.17;81.17
76998;BME280;65930;48.874;10.734;2024-01-11T07:55:10;97036.69;;;-6.09;82.17
76998;BME280;65930;48.874;10.734;2024-01-11T07:57:40;97031.28;;;-6.25;80.93
76998;BME280;65930;48.874;10.734;2024-01-11T08:00:09;97034.00;;;-6.35;82.75
76998;BME280;65930;48.874;10.734;2024-01-11T08:02:37;97047.47;;;-6.04;82.13
76998;BME280;65930;48.874;10.734;2024-01-11T08:05:06;97044.22;;;-5.96;83.61
76998;BME280;65930;48.874;10.734;2024-01-11T08:07:35;97045.81;;;-5.80;81.63
76998;BME280;65930;48.874;10.734;2024-01-11T08:10:03;97048.28;;;-5.89;83.66
76998;BME280;65930;48.874;10.734;2024-01-11T08:12:33;97040.41;;;-5.75;83.94
76998;BME280;65930;48.874;10.734;2024-01-11T08:15:01;97044.97;;;-5.70;83.50
76998;BME280;65930;48.874;10.734;2024-01-11T08:17:29;97048.75;;;-5.77;83.61
76998;BME280;65930;48.874;10.734;2024-01-11T08:19:58;97050.72;;;-6.12;85.66
76998;BME280;65930;48.874;10.734;2024-01-11T08:22:26;97060.16;;;-6.20;87.26
76998;BME280;65930;48.874;10.734;2024-01-11T08:25:00;97050.97;;;-6.14;86.61
76998;BME280;65930;48.874;10.734;2024-01-11T08:27:28;97058.00;;;-6.08;86.50
76998;BME280;65930;48.874;10.734;2024-01-11T08:29:57;97062.56;;;-6.24;87.65
76998;BME280;65930;48.874;10.734;2024-01-11T08:32:26;97054.47;;;-6.34;87.77
76998;BME280;65930;48.874;10.734;2024-01-11T08:34:58;97060.94;;;-6.30;88.43
76998;BME280;65930;48.874;10.734;2024-01-11T08:37:26;97059.31;;;-5.80;87.04
76998;BME280;65930;48.874;10.734;2024-01-11T08:39:54;97054.75;;;-6.00;86.91
76998;BME280;65930;48.874;10.734;2024-01-11T08:42:22;97044.19;;;-5.86;86.61
76998;BME280;65930;48.874;10.734;2024-01-11T08:44:50;97045.31;;;-5.92;86.76
76998;BME280;65930;48.874;10.734;2024-01-11T08:47:20;97042.03;;;-5.84;87.13
76998;BME280;65930;48.874;10.734;2024-01-11T08:49:48;97058.22;;;-5.74;86.08
76998;BME280;65930;48.874;10.734;2024-01-11T08:52:16;97043.00;;;-5.40;85.25
76998;BME280;65930;48.874;10.734;2024-01-11T08:54:44;97053.34;;;-5.77;86.29
76998;BME280;65930;48.874;10.734;2024-01-11T08:57:16;97050.88;;;-5.53;84.95
76998;BME280;65930;48.874;10.734;2024-01-11T08:59:44;97068.38;;;-5.41;84.80
76998;BME280;65930;48.874;10.734;2024-01-11T09:02:15;97067.91;;;-5.58;85.66
76998;BME280;65930;48.874;10.734;2024-01-11T09:04:49;97071.66;;;-5.59;87.20
76998;BME280;65930;48.874;10.734;2024-01-11T09:07:17;97066.22;;;-5.28;86.39
76998;BME280;65930;48.874;10.734;2024-01-11T09:09:45;97062.72;;;-5.44;86.40
76998;BME280;65930;48.874;10.734;2024-01-11T09:12:25;97070.56;;;-5.38;87.16
76998;BME280;65930;48.874;10.734;2024-01-11T09:14:53;97068.38;;;-5.41;87.52
76998;BME280;65930;48.874;10.734;2024-01-11T09:17:21;97063.75;;;-5.20;86.46
76998;BME280;65930;48.874;10.734;2024-01-11T09:19:51;97060.72;;;-5.08;86.99
76998;BME280;65930;48.874;10.734;2024-01-11T09:22:19;97071.28;;;-5.12;86.97
76998;BME280;65930;48.874;10.734;2024-01-11T09:24:47;97061.00;;;-5.10;87.47
76998;BME280;65930;48.874;10.734;2024-01-11T09:27:15;97069.31;;;-4.96;86.21
76998;BME280;65930;48.874;10.734;2024-01-11T09:29:43;97069.25;;;-4.76;86.72
76998;BME280;65930;48.874;10.734;2024-01-11T09:32:12;97072.97;;;-4.67;86.03
76998;BME280;65930;48.874;10.734;2024-01-11T09:34:41;97070.63;;;-4.89;88.13
76998;BME280;65930;48.874;10.734;2024-01-11T09:37:18;97069.31;;;-4.96;88.48
76998;BME280;65930;48.874;10.734;2024-01-11T09:39:47;97068.75;;;-4.93;88.30
76998;BME280;65930;48.874;10.734;2024-01-11T09:42:15;97075.72;;;-4.72;88.46
76998;BME280;65930;48.874;10.734;2024-01-11T09:44:43;97074.88;;;-4.67;87.81
76998;BME280;65930;48.874;10.734;2024-01-11T09:47:15;97079.50;;;-4.78;88.11
76998;BME280;65930;48.874;10.734;2024-01-11T09:49:45;97078.38;;;-4.67;88.57
76998;BME280;65930;48.874;10.734;2024-01-11T09:52:15;97077.31;;;-4.71;87.59
76998;BME280;65930;48.874;10.734;2024-01-11T09:54:45;97068.06;;;-4.60;88.11
76998;BME280;65930;48.874;10.734;2024-01-11T09:57:20;97066.50;;;-4.71;87.42
76998;BME280;65930;48.874;10.734;2024-01-11T09:59:54;97067.75;;;-4.53;87.47
76998;BME280;65930;48.874;10.734;2024-01-11T10:02:26;97044.28;;;-4.58;87.11
76998;BME280;65930;48.874;10.734;2024-01-11T10:04:54;97037.94;;;-4.43;88.26
76998;BME280;65930;48.874;10.734;2024-01-11T10:07:23;97043.00;;;-4.31;87.12
76998;BME280;65930;48.874;10.734;2024-01-11T10:09:54;97037.72;;;-4.52;88.58
76998;BME280;65930;48.874;10.734;2024-01-11T10:12:22;97048.41;;;-4.31;88.46
76998;BME280;65930;48.874;10.734;2024-01-11T10:14:52;97058.66;;;-4.28;88.19
76998;BME280;65930;48.874;10.734;2024-01-11T10:17:20;97060.28;;;-3.93;86.42
76998;BME280;65930;48.874;10.734;2024-01-11T10:19:53;97053.50;;;-4.25;87.67
76998;BME280;65930;48.874;10.734;2024-01-11T10:22:22;97051.66;;;-4.29;88.16
76998;BME280;65930;48.874;10.734;2024-01-11T10:25:08;97047.19;;;-4.15;86.78
76998;BME280;65930;48.874;10.734;2024-01-11T10:27:39;97047.75;;;-4.18;86.48
76998;BME280;65930;48.874;10.734;2024-01-11T10:30:09;97041.47;;;-4.09;86.27
76998;BME280;65930;48.874;10.734;2024-01-11T10:32:40;97038.25;;;-4.11;85.71
76998;BME280;65930;48.874;10.734;2024-01-11T10:35:08;97030.81;;;-3.66;85.20
76998;BME280;65930;48.874;10.734;2024-01-11T10:37:37;97047.16;;;-4.10;86.67
76998;BME280;65930;48.874;10.734;2024-01-11T10:40:08;97051.63;;;-3.95;86.79
76998;BME280;65930;48.874;10.734;2024-01-11T10:42:41;97038.78;;;-3.80;86.66
76998;BME280;65930;48.874;10.734;2024-01-11T10:45:15;97037.16;;;-3.52;85.54
76998;BME280;65930;48.874;10.734;2024-01-11T10:47:50;97029.50;;;-3.69;85.32
76998;BME280;65930;48.874;10.734;2024-01-11T10:50:20;97020.88;;;-3.47;84.64
76998;BME280;65930;48.874;10.734;2024-01-11T10:53:03;97026.06;;;-3.50;85.14
76998;BME280;65930;48.874;10.734;2024-01-11T10:55:38;97037.56;;;-3.16;82.62
76998;BME280;65930;48.874;10.734;2024-01-11T10:58:07;97046.00;;;-3.41;84.00
76998;BME280;65930;48.874;10.734;2024-01-11T11:00:38;97038.09;;;-3.38;84.29
76998;BME280;65930;48.874;10.734;2024-01-11T11:03:07;97035.66;;;-3.39;83.95
76998;BME280;65930;48.874;10.734;2024-01-11T11:05:37;97041.22;;;-3.55;85.07
76998;BME280;65930;48.874;10.734;2024-01-11T11:08:07;97041.91;;;-3.39;85.19
76998;BME280;65930;48.874;10.734;2024-01-11T11:10:39;97044.78;;;-3.30;85.10
76998;BME280;65930;48.874;10.734;2024-01-11T11:13:09;97025.09;;;-3.17;84.17
76998;BME280;65930;48.874;10.734;2024-01-11T11:15:39;97024.22;;;-3.31;84.97
76998;BME280;65930;48.874;10.734;2024-01-11T11:18:07;97010.84;;;-3.23;84.95
76998;BME280;65930;48.874;10.734;2024-01-11T11:20:35;97004.78;;;-3.38;85.24
76998;BME280;65930;48.874;10.734;2024-01-11T11:23:04;97004.66;;;-3.28;85.85
76998;BME280;65930;48.874;10.734;2024-01-11T11:25:34;97007.38;;;-3.28;84.73
76998;BME280;65930;48.874;10.734;2024-01-11T11:28:04;97014.16;;;-3.07;84.29
76998;BME280;65930;48.874;10.734;2024-01-11T11:30:33;97031.19;;;-2.83;84.51
76998;BME280;65930;48.874;10.734;2024-01-11T11:33:08;97019.16;;;-2.95;83.94
76998;BME280;65930;48.874;10.734;2024-01-11T11:35:38;97007.97;;;-3.13;84.22
76998;BME280;65930;48.874;10.734;2024-01-11T11:38:06;97017.69;;;-3.06;84.35
76998;BME280;65930;48.874;10.734;2024-01-11T11:40:36;97004.78;;;-3.15;84.23
76998;BME280;65930;48.874;10.734;2024-01-11T11:43:08;97010.72;;;-2.94;84.18
76998;BME280;65930;48.874;10.734;2024-01-11T11:45:37;97002.53;;;-2.70;82.58
76998;BME280;65930;48.874;10.734;2024-01-11T11:51:09;97002.25;;;-2.69;82.78
76998;BME280;65930;48.874;10.734;2024-01-11T11:53:41;96999.47;;;-2.63;83.39
76998;BME280;65930;48.874;10.734;2024-01-11T11:56:10;96988.56;;;-2.77;84.03
76998;BME280;65930;48.874;10.734;2024-01-11T11:58:40;96996.09;;;-2.37;84.22
76998;BME280;65930;48.874;10.734;2024-01-11T12:01:10;96992.66;;;-2.80;85.32
76998;BME280;65930;48.874;10.734;2024-01-11T12:03:42;96996.19;;;-2.60;84.43
76998;BME280;65930;48.874;10.734;2024-01-11T12:06:17;96988.53;;;-2.21;83.31
76998;BME280;65930;48.874;10.734;2024-01-11T12:08:47;96997.50;;;-2.39;83.83
76998;BME280;65930;48.874;10.734;2024-01-11T12:11:18;96998.94;;;-2.28;82.56
76998;BME280;65930;48.874;10.734;2024-01-11T12:13:49;96986.13;;;-2.41;82.17
76998;BME280;65930;48.874;10.734;2024-01-11T12:16:19;96994.38;;;-2.14;81.11
76998;BME280;65930;48.874;10.734;2024-01-11T12:18:48;96977.47;;;-2.25;81.66
76998;BME280;65930;48.874;10.734;2024-01-11T12:21:17;96971.22;;;-2.25;81.98
76998;BME280;65930;48.874;10.734;2024-01-11T12:23:45;96966.66;;;-2.11;81.16
76998;BME280;65930;48.874;10.734;2024-01-11T12:26:16;96968.88;;;-1.99;80.63
76998;BME280;65930;48.874;10.734;2024-01-11T12:28:51;96972.16;;;-2.16;81.25
76998;BME280;65930;48.874;10.734;2024-01-11T12:31:21;96964.50;;;-1.82;80.47
76998;BME280;65930;48.874;10.734;2024-01-11T12:33:50;96969.00;;;-1.91;80.90
76998;BME280;65930;48.874;10.734;2024-01-11T12:36:18;96977.59;;;-1.84;79.02
76998;BME280;65930;48.874;10.734;2024-01-11T12:38:47;96975.97;;;-1.85;80.29
76998;BME280;65930;48.874;10.734;2024-01-11T12:41:21;96971.72;;;-1.91;79.82
76998;BME280;65930;48.874;10.734;2024-01-11T12:43:51;96960.91;;;-1.63;79.20
76998;BME280;65930;48.874;10.734;2024-01-11T12:46:20;96968.84;;;-2.13;80.57
76998;BME280;65930;48.874;10.734;2024-01-11T12:48:49;96969.56;;;-1.61;80.00
76998;BME280;65930;48.874;10.734;2024-01-11T12:51:19;96974.00;;;-1.52;79.13
76998;BME280;65930;48.874;10.734;2024-01-11T12:53:51;96963.84;;;-1.60;79.65
76998;BME280;65930;48.874;10.734;2024-01-11T12:56:20;96979.25;;;-1.42;79.09
76998;BME280;65930;48.874;10.734;2024-01-11T12:58:51;96979.72;;;-1.67;79.74
76998;BME280;65930;48.874;10.734;2024-01-11T13:01:19;96970.38;;;-1.20;78.84
76998;BME280;65930;48.874;10.734;2024-01-11T13:03:48;96971.47;;;-1.21;78.91
76998;BME280;65930;48.874;10.734;2024-01-11T13:06:16;96971.47;;;-1.48;79.52